Time;durP1;ratioP1;P1;durP2;ratioP2;P2;SDS_P1;SDS_P2;PMS_P1;PMS_P2;Temp;Humidity;BMP_temperature;BMP_pressure;BME280_temperature;BME280_humidity;BME280_pressure;Samples;Min_cycle;Max_cycle;Signal;HPM_P1;HPM_P2
2022/09/27 00:02:03;;;;;;;36.10;19.00;;;;;;;10.70;77.49;97775.51;105924;1276;108400;-64
2022/09/27 00:04:33;;;;;;;39.20;20.00;;;;;;;10.70;77.41;97778.34;105889;1276;97965;-64
2022/09/27 00:07:02;;;;;;;38.70;20.20;;;;;;;10.69;77.41;97773.30;105936;1276;97841;-65
2022/09/27 00:09:30;;;;;;;33.90;19.00;;;;;;;10.71;77.66;97771.23;105868;1276;111981;-63
2022/09/27 00:11:58;;;;;;;34.10;18.50;;;;;;;10.74;77.81;97770.58;105861;1276;98000;-64
2022/09/27 00:14:26;;;;;;;31.90;19.00;;;;;;;10.78;77.81;97772.23;105848;1276;108339;-62
2022/09/27 00:16:56;;;;;;;39.80;17.50;;;;;;;10.80;77.71;97770.05;105878;1276;97769;-63
2022/09/27 00:19:25;;;;;;;30.20;15.40;;;;;;;10.80;77.76;97767.53;106017;1276;97913;-63
2022/09/27 00:21:56;;;;;;;28.30;15.70;;;;;;;10.81;77.61;97769.73;106016;1276;111516;-65
2022/09/27 00:24:25;;;;;;;26.70;15.30;;;;;;;10.79;77.80;97765.72;105945;1276;98073;-63
2022/09/27 00:26:54;;;;;;;27.00;15.80;;;;;;;10.76;77.62;97768.08;105913;1276;108342;-63
2022/09/27 00:29:22;;;;;;;26.70;16.30;;;;;;;10.75;77.70;97766.63;105969;1276;97937;-63
2022/09/27 00:31:53;;;;;;;25.70;14.30;;;;;;;10.75;77.85;97766.04;105967;1276;97940;-64
2022/09/27 00:34:24;;;;;;;31.60;14.80;;;;;;;10.78;77.94;97765.27;105989;1276;112313;-64
2022/09/27 00:36:54;;;;;;;24.90;13.60;;;;;;;10.78;77.75;97762.25;105964;1276;95295;-63
2022/09/27 00:39:22;;;;;;;27.80;14.20;;;;;;;10.76;77.75;97756.73;105926;1276;107676;-64
2022/09/27 00:41:51;;;;;;;30.00;14.00;;;;;;;10.75;77.71;97753.63;105970;1276;97840;-65
2022/09/27 00:44:27;;;;;;;25.90;12.90;;;;;;;10.72;77.77;97751.09;105895;1276;97934;-64
2022/09/27 00:47:24;;;;;;;31.60;14.20;;;;;;;10.67;77.71;97755.96;105921;1276;111999;-62
2022/09/27 00:50:05;;;;;;;32.60;14.40;;;;;;;10.63;77.83;97751.06;105873;1276;98070;-63
2022/09/27 00:52:56;;;;;;;36.80;14.30;;;;;;;10.62;77.88;97750.61;105884;1276;108242;-63
2022/09/27 00:55:35;;;;;;;35.30;13.80;;;;;;;10.58;77.77;97750.27;105872;1276;97996;-63
2022/09/27 00:58:07;;;;;;;32.70;13.40;;;;;;;10.53;77.80;97743.85;105918;1276;97875;-63
2022/09/27 01:00:42;;;;;;;35.50;14.00;;;;;;;10.51;77.91;97735.17;105923;1276;112713;-61
2022/09/27 01:03:22;;;;;;;38.70;14.30;;;;;;;10.52;78.01;97732.00;106025;1276;96593;-62
2022/09/27 01:05:52;;;;;;;50.00;14.10;;;;;;;10.52;77.89;97728.09;106002;1276;108200;-63
2022/09/27 01:08:21;;;;;;;48.80;12.70;;;;;;;10.45;77.78;97719.88;105890;1276;96566;-64
2022/09/27 01:11:10;;;;;;;24.40;13.60;;;;;;;10.42;77.90;97717.01;105875;1276;97890;-64
2022/09/27 01:14:18;;;;;;;32.30;14.10;;;;;;;10.43;78.14;97712.46;105876;1276;112102;-61
2022/09/27 01:17:05;;;;;;;42.30;14.40;;;;;;;10.44;78.17;97706.73;105898;1276;95288;-65
2022/09/27 01:19:51;;;;;;;46.30;13.50;;;;;;;10.43;78.14;97705.92;105920;1276;108528;-64
2022/09/27 01:22:41;;;;;;;46.40;15.30;;;;;;;10.41;78.00;97703.13;106025;1276;97890;-63
2022/09/27 01:25:47;;;;;;;36.70;13.50;;;;;;;10.38;78.13;97702.51;106046;1276;97880;-64
2022/09/27 01:28:38;;;;;;;32.00;13.00;;;;;;;10.39;78.30;97701.85;105949;1276;111031;-64
2022/09/27 01:31:16;;;;;;;31.80;14.30;;;;;;;10.40;78.26;97698.70;106006;1276;98519;-63
2022/09/27 01:34:08;;;;;;;31.30;12.90;;;;;;;10.42;78.27;97697.36;105969;1276;108355;-65
2022/09/27 01:36:43;;;;;;;46.20;12.80;;;;;;;10.42;78.35;97694.85;105999;1276;97912;-65
2022/09/27 01:39:36;;;;;;;37.00;14.20;;;;;;;10.41;78.25;97690.81;106034;1276;97867;-65
2022/09/27 01:42:26;;;;;;;31.80;12.20;;;;;;;10.41;78.25;97691.23;105975;1276;111138;-64
2022/09/27 01:45:17;;;;;;;30.80;13.20;;;;;;;10.36;78.15;97695.59;105987;1277;95335;-64
2022/09/27 01:47:55;;;;;;;30.20;12.70;;;;;;;10.32;78.18;97693.30;106000;1276;108453;-65
2022/09/27 01:50:51;;;;;;;24.90;12.90;;;;;;;10.32;78.40;97692.61;105937;1276;95242;-65
2022/09/27 01:53:29;;;;;;;28.00;12.40;;;;;;;10.35;78.40;97691.40;106036;1277;97960;-65
2022/09/27 01:56:04;;;;;;;30.40;12.00;;;;;;;10.37;78.37;97691.05;106046;1277;111937;-64
2022/09/27 01:59:12;;;;;;;35.40;11.50;;;;;;;10.37;78.41;97689.95;105963;1273;97863;-63
2022/09/27 02:01:46;;;;;;;53.00;12.00;;;;;;;10.36;78.33;97685.14;105885;1276;108393;-66
2022/09/27 02:04:24;;;;;;;50.90;11.40;;;;;;;10.33;78.20;97685.61;105923;1276;97952;-69
2022/09/27 02:06:58;;;;;;;37.30;11.30;;;;;;;10.28;78.22;97682.30;106036;1276;97878;-64
2022/09/27 02:09:38;;;;;;;31.10;12.70;;;;;;;10.24;78.33;97676.67;105956;1276;111402;-65
2022/09/27 02:12:13;;;;;;;57.50;12.00;;;;;;;10.23;78.41;97678.33;105916;1276;96544;-64
2022/09/27 02:14:50;;;;;;;31.20;11.40;;;;;;;10.20;78.31;97677.36;105915;1276;108529;-63
2022/09/27 02:17:41;;;;;;;55.50;11.40;;;;;;;10.19;78.44;97671.48;106010;1276;95850;-63
2022/09/27 02:20:23;;;;;;;108.70;12.20;;;;;;;10.17;78.30;97666.13;106007;1276;99470;-64
2022/09/27 02:23:20;;;;;;;64.10;10.90;;;;;;;10.08;78.13;97666.63;106007;1276;112146;-63
2022/09/27 02:25:59;;;;;;;77.50;11.50;;;;;;;9.99;78.30;97669.73;105991;1276;95365;-66
2022/09/27 02:28:33;;;;;;;115.80;13.90;;;;;;;9.95;78.18;97666.05;105884;1276;107686;-64
2022/09/27 02:31:01;;;;;;;54.30;11.40;;;;;;;9.90;78.25;97664.72;105874;1276;97838;-63
2022/09/27 02:33:43;;;;;;;35.50;10.70;;;;;;;9.90;78.40;97667.27;105919;1276;97901;-63
2022/09/27 02:36:12;;;;;;;63.00;11.90;;;;;;;9.91;78.52;97664.80;105940;1276;110291;-64
2022/09/27 02:38:42;;;;;;;31.00;11.60;;;;;;;9.92;78.56;97660.52;105910;1276;97906;-63
2022/09/27 02:41:16;;;;;;;67.80;12.50;;;;;;;9.94;78.55;97659.97;105876;1276;108459;-64
2022/09/27 02:43:48;;;;;;;70.10;12.20;;;;;;;9.92;78.50;97658.19;105921;1276;95265;-64
2022/09/27 02:46:41;;;;;;;41.10;10.70;;;;;;;9.92;78.64;97661.20;105975;1276;97928;-64
2022/09/27 02:49:44;;;;;;;75.50;11.20;;;;;;;9.93;78.67;97655.44;106027;1276;112590;-64
2022/09/27 02:52:25;;;;;;;51.70;11.40;;;;;;;9.89;78.47;97651.41;105994;1276;95400;-63
2022/09/27 02:55:11;;;;;;;48.50;11.20;;;;;;;9.85;78.53;97646.23;105960;1276;108067;-66
2022/09/27 02:58:13;;;;;;;31.50;11.30;;;;;;;9.86;78.61;97646.39;105915;1276;97792;-65
2022/09/27 03:00:59;;;;;;;60.20;11.40;;;;;;;9.88;78.70;97642.80;105912;1276;95272;-65
2022/09/27 03:04:06;;;;;;;48.40;11.00;;;;;;;9.89;78.79;97638.64;105877;1276;110752;-64
2022/09/27 03:06:39;;;;;;;39.30;10.40;;;;;;;9.91;78.76;97638.14;105321;1284;98825;-64
2022/09/27 03:09:22;;;;;;;52.70;10.60;;;;;;;9.92;78.72;97637.83;105819;1276;108025;-66
2022/09/27 03:11:51;;;;;;;82.60;12.00;;;;;;;9.91;78.74;97634.16;105849;1276;98514;-67
2022/09/27 03:14:20;;;;;;;62.50;11.90;;;;;;;9.89;78.61;97634.05;105889;1276;97881;-66
2022/09/27 03:16:48;;;;;;;75.40;11.60;;;;;;;9.86;78.60;97637.80;105947;1276;111992;-68
2022/09/27 03:19:19;;;;;;;81.70;11.40;;;;;;;9.81;78.57;97636.27;105937;1276;95272;-66
2022/09/27 03:21:47;;;;;;;96.00;11.80;;;;;;;9.75;78.38;97636.77;105888;1276;108365;-65
2022/09/27 03:24:16;;;;;;;120.30;12.00;;;;;;;9.65;78.30;97636.77;105833;1276;97899;-65
2022/09/27 03:26:45;;;;;;;98.70;11.20;;;;;;;9.55;78.18;97638.71;105987;1276;97864;-65
2022/09/27 03:29:15;;;;;;;97.00;11.50;;;;;;;9.47;78.37;97639.61;106024;1276;110330;-65
2022/09/27 03:31:45;;;;;;;126.30;12.50;;;;;;;9.45;78.60;97635.54;105989;1276;95372;-65
2022/09/27 03:34:14;;;;;;;106.80;10.90;;;;;;;9.46;78.61;97633.88;105984;1276;108425;-65
2022/09/27 03:36:44;;;;;;;98.90;11.20;;;;;;;9.45;78.49;97640.55;105948;1276;95245;-65
2022/09/27 03:39:13;;;;;;;56.30;11.80;;;;;;;9.42;78.65;97640.98;106017;1276;97992;-65
2022/09/27 03:41:42;;;;;;;80.70;12.10;;;;;;;9.42;78.83;97637.03;106034;1276;112406;-65
2022/09/27 03:44:10;;;;;;;83.30;12.50;;;;;;;9.45;78.84;97635.36;105965;1276;98535;-61
2022/09/27 03:46:39;;;;;;;53.80;10.30;;;;;;;9.48;78.79;97627.11;106007;1276;108141;-67
2022/09/27 03:49:07;;;;;;;97.20;11.90;;;;;;;9.49;78.92;97624.85;106009;1276;97960;-64
2022/09/27 03:51:37;;;;;;;80.60;11.90;;;;;;;9.51;78.91;97624.17;105929;1276;97979;-65
2022/09/27 03:54:06;;;;;;;83.10;10.90;;;;;;;9.51;78.79;97622.81;105812;1276;156161;-65
2022/09/27 03:56:34;;;;;;;101.00;10.90;;;;;;;9.47;78.67;97624.96;106021;1276;97846;-64
2022/09/27 03:59:03;;;;;;;78.70;10.80;;;;;;;9.41;78.69;97627.38;106015;1276;108385;-64
2022/09/27 04:01:34;;;;;;;62.40;10.10;;;;;;;9.38;78.73;97625.02;105973;1276;98570;-63
2022/09/27 04:04:05;;;;;;;120.20;11.60;;;;;;;9.35;78.78;97622.60;106030;1276;97860;-62
2022/09/27 04:06:39;;;;;;;107.70;11.90;;;;;;;9.33;78.65;97622.27;105892;1276;111433;-66
2022/09/27 04:09:08;;;;;;;115.20;10.30;;;;;;;9.27;78.64;97620.85;106004;1276;95392;-64
2022/09/27 04:11:37;;;;;;;99.60;10.60;;;;;;;9.22;78.61;97618.45;106000;1276;106986;-65
2022/09/27 04:14:05;;;;;;;78.40;9.90;;;;;;;9.17;78.66;97617.18;105961;1276;95278;-65
2022/09/27 04:16:35;;;;;;;97.80;10.30;;;;;;;9.14;78.62;97613.00;105973;1276;97870;-66
2022/09/27 04:19:06;;;;;;;98.90;11.10;;;;;;;9.10;78.48;97613.20;106040;1276;112062;-65
2022/09/27 04:21:34;;;;;;;97.70;10.30;;;;;;;9.03;78.57;97614.75;106006;1276;97646;-65
2022/09/27 04:24:04;;;;;;;89.90;10.80;;;;;;;9.00;78.63;97619.56;105922;1276;108367;-63
2022/09/27 04:26:33;;;;;;;69.60;9.70;;;;;;;8.96;78.62;97619.38;105969;1276;97983;-65
2022/09/27 04:29:02;;;;;;;84.20;10.20;;;;;;;8.92;78.68;97619.20;105972;1276;97907;-65
2022/09/27 04:31:32;;;;;;;85.80;11.50;;;;;;;8.90;78.83;97617.60;105845;1276;112478;-65
2022/09/27 04:34:00;;;;;;;95.60;11.50;;;;;;;8.90;78.73;97612.69;106012;1276;97326;-66
2022/09/27 04:36:28;;;;;;;95.70;11.40;;;;;;;8.88;78.81;97609.25;105916;1276;110667;-65
2022/09/27 04:39:01;;;;;;;64.70;11.50;;;;;;;8.89;78.99;97606.05;105948;1276;97999;-65
2022/09/27 04:41:31;;;;;;;41.50;10.20;;;;;;;8.91;79.17;97603.57;106021;1276;98034;-65
2022/09/27 04:44:00;;;;;;;129.10;11.10;;;;;;;8.96;79.27;97605.48;105961;1276;111262;-64
2022/09/27 04:46:31;;;;;;;96.60;11.20;;;;;;;8.99;79.02;97601.98;105973;1276;96594;-63
2022/09/27 04:49:02;;;;;;;94.40;11.00;;;;;;;8.98;79.03;97605.91;105983;1276;108330;-63
2022/09/27 04:51:31;;;;;;;125.90;11.50;;;;;;;8.97;78.96;97612.45;105814;1276;97971;-64
2022/09/27 04:54:00;;;;;;;108.70;11.70;;;;;;;8.95;79.02;97612.62;105929;1276;97852;-64
2022/09/27 04:56:31;;;;;;;96.50;10.90;;;;;;;8.95;79.14;97608.88;105923;1276;112031;-64
2022/09/27 04:59:00;;;;;;;85.60;12.10;;;;;;;8.96;79.27;97606.52;105920;1276;96411;-66
2022/09/27 05:01:29;;;;;;;80.60;10.80;;;;;;;8.98;79.12;97610.52;106008;1276;108640;-64
2022/09/27 05:03:58;;;;;;;52.20;10.50;;;;;;;8.98;79.21;97611.60;105999;1276;97994;-65
2022/09/27 05:06:27;;;;;;;67.10;10.00;;;;;;;9.00;79.29;97609.63;106032;1276;97877;-62
2022/09/27 05:08:57;;;;;;;54.70;11.00;;;;;;;9.03;79.32;97606.57;105929;1276;111805;-65
2022/09/27 05:11:26;;;;;;;63.60;10.30;;;;;;;9.05;79.27;97601.29;106005;1276;97864;-65
2022/09/27 05:13:56;;;;;;;41.60;9.60;;;;;;;9.08;79.37;97604.01;106019;1276;107734;-65
2022/09/27 05:16:24;;;;;;;56.80;9.30;;;;;;;9.10;79.33;97601.66;105992;1276;97999;-64
2022/09/27 05:19:04;;;;;;;51.10;10.00;;;;;;;9.09;79.15;97604.65;105894;1276;97961;-65
2022/09/27 05:21:32;;;;;;;57.70;10.10;;;;;;;9.06;79.09;97605.04;105974;1276;112013;-65
2022/09/27 05:24:01;;;;;;;45.10;8.00;;;;;;;9.04;79.10;97602.58;105974;1276;97915;-65
2022/09/27 05:26:31;;;;;;;60.40;9.20;;;;;;;9.01;78.94;97601.45;106011;1276;107323;-65
2022/09/27 05:28:59;;;;;;;61.00;8.80;;;;;;;8.97;79.11;97604.49;105994;1276;97876;-65
2022/09/27 05:31:30;;;;;;;58.20;8.60;;;;;;;8.97;79.23;97602.47;106005;1276;97846;-66
2022/09/27 05:34:00;;;;;;;83.60;9.40;;;;;;;8.99;79.27;97608.37;105996;1276;111921;-65
2022/09/27 05:36:29;;;;;;;72.20;9.80;;;;;;;9.00;79.35;97602.93;105998;1276;97999;-66
2022/09/27 05:38:59;;;;;;;69.60;9.40;;;;;;;9.02;79.39;97601.17;105992;1276;109029;-65
2022/09/27 05:41:31;;;;;;;83.70;10.00;;;;;;;9.04;79.30;97599.89;105930;1276;98019;-65
2022/09/27 05:44:00;;;;;;;78.80;9.90;;;;;;;9.02;79.11;97601.38;106010;1276;95297;-65
2022/09/27 05:46:30;;;;;;;96.90;11.10;;;;;;;9.00;79.27;97602.95;105908;1276;112673;-65
2022/09/27 05:48:59;;;;;;;115.00;16.40;;;;;;;9.00;79.24;97603.26;105946;1276;97575;-65
2022/09/27 05:51:29;;;;;;;120.20;14.60;;;;;;;9.00;79.34;97598.18;105974;1276;110474;-65
2022/09/27 05:53:59;;;;;;;71.30;11.90;;;;;;;9.02;79.40;97598.72;105977;1276;97850;-66
2022/09/27 05:56:30;;;;;;;119.70;14.60;;;;;;;9.02;79.28;97595.67;106032;1276;98002;-66
2022/09/27 05:58:59;;;;;;;88.90;17.10;;;;;;;8.99;79.19;97602.11;106002;1276;111072;-65
2022/09/27 06:01:30;;;;;;;85.10;17.10;;;;;;;8.99;79.31;97610.07;105934;1279;98377;-65
2022/09/27 06:03:58;;;;;;;101.90;14.60;;;;;;;9.02;79.43;97608.13;105844;1278;108416;-65
2022/09/27 06:06:29;;;;;;;87.10;13.00;;;;;;;9.03;79.40;97608.19;105873;1278;98473;-65
2022/09/27 06:08:59;;;;;;;91.70;15.00;;;;;;;9.04;79.47;97607.15;105961;1276;97844;-66
2022/09/27 06:11:34;;;;;;;119.80;16.80;;;;;;;9.06;79.54;97601.48;105946;1276;111885;-65
2022/09/27 06:14:02;;;;;;;166.20;16.00;;;;;;;9.09;79.42;97602.64;105916;1276;96384;-64
2022/09/27 06:16:31;;;;;;;190.70;15.70;;;;;;;9.10;79.59;97601.54;105958;1276;108592;-63
2022/09/27 06:18:59;;;;;;;38.60;12.50;;;;;;;9.14;79.77;97604.02;105889;1276;95294;-64
2022/09/27 06:21:31;;;;;;;141.00;12.90;;;;;;;9.21;79.82;97602.83;105882;1276;97873;-65
2022/09/27 06:24:06;;;;;;;158.50;13.10;;;;;;;9.26;79.63;97601.56;105918;1277;112800;-64
2022/09/27 06:26:33;;;;;;;159.10;14.10;;;;;;;9.25;79.52;97596.33;105985;1276;97960;-65
2022/09/27 06:29:02;;;;;;;101.50;13.90;;;;;;;9.26;79.60;97593.53;105939;1276;108409;-65
2022/09/27 06:31:33;;;;;;;130.30;15.80;;;;;;;9.29;79.55;97587.59;105910;1276;97956;-65
2022/09/27 06:34:02;;;;;;;144.00;17.50;;;;;;;9.30;79.56;97580.47;105899;1278;99125;-64
2022/09/27 06:36:32;;;;;;;105.40;19.20;;;;;;;9.30;79.68;97575.66;105939;1276;112348;-64
2022/09/27 06:39:01;;;;;;;96.20;21.00;;;;;;;9.33;79.71;97581.23;105965;1276;95387;-64
2022/09/27 06:41:32;;;;;;;109.40;23.30;;;;;;;9.37;79.90;97577.83;105951;1276;108896;-62
2022/09/27 06:44:00;;;;;;;79.00;26.30;;;;;;;9.44;80.08;97579.01;105838;1276;97887;-64
2022/09/27 06:46:32;;;;;;;125.60;30.90;;;;;;;9.52;80.03;97584.98;105983;1276;97892;-65
2022/09/27 06:49:02;;;;;;;131.80;30.10;;;;;;;9.58;79.95;97588.71;106011;1276;111361;-66
2022/09/27 06:51:35;;;;;;;121.60;29.30;;;;;;;9.61;79.93;97584.68;106056;1276;97861;-63
2022/09/27 06:54:06;;;;;;;157.50;33.00;;;;;;;9.66;79.78;97576.96;106056;1276;108238;-65
2022/09/27 06:56:40;;;;;;;163.40;30.30;;;;;;;9.66;79.76;97568.10;105994;1276;97995;-66
2022/09/27 07:02:02;;;;;;;85.00;31.60;;;;;;;9.69;79.81;97579.02;105988;1276;111967;-66
2022/09/27 07:04:33;;;;;;;70.60;34.50;;;;;;;9.72;79.97;97583.48;105990;1276;97890;-66
2022/09/27 07:07:01;;;;;;;55.80;34.60;;;;;;;9.76;80.18;97582.77;105992;1276;108396;-66
2022/09/27 07:09:31;;;;;;;54.00;30.80;;;;;;;9.83;80.24;97571.30;105991;1276;97960;-67
2022/09/27 07:12:02;;;;;;;65.30;32.70;;;;;;;9.92;80.30;97567.02;105956;1276;95207;-66
2022/09/27 07:14:33;;;;;;;57.90;30.80;;;;;;;9.97;80.12;97565.77;105964;1279;112051;-66
2022/09/27 07:17:02;;;;;;;60.90;36.10;;;;;;;10.02;80.13;97569.29;106039;1279;96321;-66
2022/09/27 07:19:30;;;;;;;54.10;31.90;;;;;;;10.06;80.10;97566.90;105933;1278;108351;-67
2022/09/27 07:21:58;;;;;;;49.90;31.60;;;;;;;10.10;80.08;97566.19;105910;1279;97939;-67
2022/09/27 07:24:26;;;;;;;44.30;27.90;;;;;;;10.14;80.07;97570.23;105892;1279;97950;-66
2022/09/27 07:26:57;;;;;;;49.10;26.20;;;;;;;10.19;80.01;97578.26;105973;1278;111356;-65
2022/09/27 07:29:26;;;;;;;40.40;28.00;;;;;;;10.18;80.08;97573.94;105931;1276;95322;-65
2022/09/27 07:31:56;;;;;;;40.30;26.00;;;;;;;10.20;80.24;97569.53;105892;1278;109534;-66
2022/09/27 07:34:27;;;;;;;37.50;25.20;;;;;;;10.24;80.29;97569.85;106019;1276;98044;-64
2022/09/27 07:37:00;;;;;;;37.30;25.60;;;;;;;10.34;80.33;97573.71;106018;1276;97890;-67
2022/09/27 07:39:34;;;;;;;39.50;27.10;;;;;;;10.42;80.43;97575.60;105921;1277;112193;-66
2022/09/27 07:42:02;;;;;;;37.00;25.50;;;;;;;10.51;80.44;97577.36;105990;1276;96204;-65
2022/09/27 07:44:31;;;;;;;33.80;21.30;;;;;;;10.62;80.47;97579.05;105935;1276;108538;-64
2022/09/27 07:46:59;;;;;;;30.70;17.80;;;;;;;10.72;80.24;97573.61;105966;1276;97784;-64
2022/09/27 07:49:28;;;;;;;28.10;15.10;;;;;;;10.79;80.08;97570.33;105990;1276;97853;-66
2022/09/27 07:51:56;;;;;;;25.50;14.60;;;;;;;10.78;80.14;97574.95;105951;1276;112033;-64
2022/09/27 07:54:25;;;;;;;30.50;16.70;;;;;;;10.82;80.29;97575.46;106035;1276;97981;-64
2022/09/27 07:56:55;;;;;;;27.70;16.90;;;;;;;10.88;80.23;97575.77;106025;1276;108470;-65
2022/09/27 07:59:26;;;;;;;26.20;15.00;;;;;;;10.99;80.23;97577.26;106015;1276;97972;-65
2022/09/27 08:01:55;;;;;;;27.00;15.50;;;;;;;11.06;80.36;97579.04;106044;1276;97962;-65
2022/09/27 08:04:25;;;;;;;26.30;15.50;;;;;;;11.12;80.46;97578.07;106083;1276;112098;-65
2022/09/27 08:06:55;;;;;;;28.10;17.10;;;;;;;11.19;80.39;97579.04;106028;1276;95366;-65
2022/09/27 08:09:25;;;;;;;29.80;16.90;;;;;;;11.26;80.46;97578.27;106022;1276;107524;-64
2022/09/27 08:11:57;;;;;;;28.70;15.40;;;;;;;11.32;80.41;97578.73;105931;1276;96444;-63
2022/09/27 08:14:25;;;;;;;27.10;16.20;;;;;;;11.37;80.13;97574.23;105859;1276;97996;-66
2022/09/27 08:16:53;;;;;;;25.80;15.70;;;;;;;11.42;80.39;97566.61;105903;1276;111931;-63
2022/09/27 08:19:22;;;;;;;24.70;14.90;;;;;;;11.54;80.31;97565.02;105872;1277;97898;-61
2022/09/27 08:21:55;;;;;;;26.10;15.50;;;;;;;11.66;80.40;97564.50;105894;1276;108819;-66
2022/09/27 08:24:25;;;;;;;30.00;20.10;;;;;;;11.79;80.21;97566.33;105873;1276;95199;-65
2022/09/27 08:26:54;;;;;;;30.60;19.70;;;;;;;11.82;79.98;97568.48;105975;1276;95276;-66
2022/09/27 08:29:22;;;;;;;30.50;19.00;;;;;;;11.86;80.27;97565.05;106019;1276;111949;-66
2022/09/27 08:31:53;;;;;;;28.70;17.30;;;;;;;11.96;80.34;97561.54;106024;1278;97761;-66
2022/09/27 08:34:21;;;;;;;32.70;23.70;;;;;;;12.05;80.24;97558.30;105978;1276;107721;-65
2022/09/27 08:36:52;;;;;;;35.00;23.00;;;;;;;12.10;80.26;97550.94;106005;1276;98018;-65
2022/09/27 08:39:21;;;;;;;35.10;24.90;;;;;;;12.17;80.37;97546.95;105878;1278;97884;-66
2022/09/27 08:42:01;;;;;;;29.60;20.40;;;;;;;12.27;80.20;97544.05;106140;1278;111565;-65
2022/09/27 08:44:41;;;;;;;27.20;17.80;;;;;;;12.37;80.20;97547.08;105998;1278;96602;-65
2022/09/27 08:47:30;;;;;;;26.20;16.40;;;;;;;12.45;80.15;97550.63;105927;1278;107874;-65
2022/09/27 08:50:08;;;;;;;26.00;15.60;;;;;;;12.56;80.26;97547.77;105983;1276;97777;-66
2022/09/27 08:52:47;;;;;;;23.90;14.10;;;;;;;12.61;79.95;97545.31;106000;1276;97829;-67
2022/09/27 08:55:57;;;;;;;23.30;13.50;;;;;;;12.60;80.01;97542.52;106042;1276;111026;-66
2022/09/27 08:58:36;;;;;;;22.40;13.20;;;;;;;12.68;80.07;97544.77;106041;1276;97891;-65
2022/09/27 09:01:20;;;;;;;22.00;12.80;;;;;;;12.77;80.16;97542.20;106030;1276;107599;-66
2022/09/27 09:04:04;;;;;;;22.30;12.50;;;;;;;12.88;80.23;97542.78;106058;1276;97973;-66
2022/09/27 09:06:46;;;;;;;21.50;12.70;;;;;;;12.98;80.24;97545.34;106053;1276;98327;-65
2022/09/27 09:09:38;;;;;;;21.10;11.60;;;;;;;13.10;80.06;97540.67;106032;1276;110479;-67
2022/09/27 09:12:45;;;;;;;23.70;12.20;;;;;;;13.20;79.93;97539.25;105943;1276;97994;-68
2022/09/27 09:15:54;;;;;;;20.70;11.60;;;;;;;13.21;79.89;97537.73;105947;1276;108334;-66
2022/09/27 09:18:48;;;;;;;21.60;11.80;;;;;;;13.23;80.01;97536.06;105936;1276;97571;-67
2022/09/27 09:21:49;;;;;;;20.70;11.50;;;;;;;13.31;80.04;97534.65;105923;1276;98132;-65
2022/09/27 09:24:40;;;;;;;22.10;11.90;;;;;;;13.40;80.01;97532.95;105970;1276;112480;-66
2022/09/27 09:27:20;;;;;;;21.10;12.00;;;;;;;13.50;80.03;97533.09;105959;1276;97778;-66
2022/09/27 09:30:17;;;;;;;19.50;11.10;;;;;;;13.64;80.11;97528.48;105979;1276;107634;-64
2022/09/27 09:33:14;;;;;;;19.70;10.70;;;;;;;13.83;79.87;97522.68;105998;1276;97926;-66
2022/09/27 09:35:51;;;;;;;20.90;11.60;;;;;;;14.05;79.76;97521.11;105969;1277;97961;-65
2022/09/27 09:38:38;;;;;;;21.10;11.10;;;;;;;14.37;79.86;97517.38;106031;1276;110957;-65
2022/09/27 09:41:24;;;;;;;19.20;10.30;;;;;;;14.74;80.04;97509.60;106030;1276;97854;-64
2022/09/27 09:44:11;;;;;;;18.10;9.30;;;;;;;15.02;79.58;97505.89;105951;1277;107579;-65
2022/09/27 09:46:47;;;;;;;18.00;8.90;;;;;;;15.23;79.52;97506.71;106037;1276;97897;-66
2022/09/27 09:49:29;;;;;;;16.50;8.90;;;;;;;15.48;79.58;97508.36;105950;1277;97989;-66
2022/09/27 09:52:11;;;;;;;16.90;8.50;;;;;;;15.76;79.30;97508.36;105967;1276;111479;-65
2022/09/27 09:54:48;;;;;;;17.80;8.30;;;;;;;15.92;79.36;97504.48;105726;1276;97985;-64
2022/09/27 09:57:27;;;;;;;17.60;9.00;;;;;;;16.06;79.41;97501.20;105792;1276;107760;-64
2022/09/27 10:00:07;;;;;;;15.30;7.90;;;;;;;16.14;79.11;97502.45;105932;1277;98023;-65
2022/09/27 10:02:41;;;;;;;16.80;8.00;;;;;;;16.10;78.80;97503.27;105843;1276;97897;-64
2022/09/27 10:05:19;;;;;;;16.40;7.90;;;;;;;16.09;78.91;97501.94;105942;1276;110420;-65
2022/09/27 10:07:51;;;;;;;16.30;8.20;;;;;;;16.17;79.09;97504.09;105918;1276;97880;-64
2022/09/27 10:10:21;;;;;;;18.20;8.60;;;;;;;16.22;78.82;97500.02;105912;1276;107780;-65
2022/09/27 10:12:51;;;;;;;17.50;8.40;;;;;;;16.28;79.06;97503.50;105930;1276;98689;-64
2022/09/27 10:15:25;;;;;;;17.00;8.40;;;;;;;16.29;78.93;97496.01;105831;1277;97859;-65
2022/09/27 10:17:58;;;;;;;16.60;8.20;;;;;;;16.31;78.76;97496.93;105908;1276;111383;-64
2022/09/27 10:20:37;;;;;;;16.00;7.90;;;;;;;16.33;78.67;97491.31;105975;1276;97889;-64
2022/09/27 10:23:20;;;;;;;17.00;8.60;;;;;;;16.37;78.67;97489.49;105908;1276;107815;-65
2022/09/27 10:25:54;;;;;;;15.40;7.70;;;;;;;16.38;78.67;97486.70;105888;1276;97912;-66
2022/09/27 10:28:25;;;;;;;16.10;8.70;;;;;;;16.40;78.50;97483.73;105945;1276;97856;-64
2022/09/27 10:31:02;;;;;;;17.00;9.00;;;;;;;16.42;78.59;97479.70;105910;1276;112343;-64
2022/09/27 10:33:31;;;;;;;19.60;9.60;;;;;;;16.42;78.50;97479.23;105971;1276;97960;-65
2022/09/27 10:36:01;;;;;;;21.00;9.30;;;;;;;16.37;78.35;97472.95;105977;1276;108497;-64
2022/09/27 10:38:36;;;;;;;16.00;8.70;;;;;;;16.39;78.44;97469.84;105969;1277;97842;-65
2022/09/27 10:41:35;;;;;;;18.20;9.40;;;;;;;16.41;78.36;97464.16;105990;1276;97726;-65
2022/09/27 10:44:14;;;;;;;18.70;9.10;;;;;;;16.43;78.45;97451.72;105975;1277;111828;-65
2022/09/27 10:46:51;;;;;;;18.60;8.90;;;;;;;16.41;78.11;97452.02;105895;1277;97896;-64
2022/09/27 10:49:28;;;;;;;18.90;9.50;;;;;;;16.37;78.16;97454.25;105888;1278;108480;-65
2022/09/27 10:52:07;;;;;;;18.30;9.80;;;;;;;16.35;78.17;97451.41;106089;1277;97992;-67
2022/09/27 10:54:42;;;;;;;18.00;9.70;;;;;;;16.33;78.13;97452.17;106014;1277;97904;-64
2022/09/27 10:57:12;;;;;;;17.90;9.20;;;;;;;16.32;78.12;97451.58;105954;1277;112077;-65
2022/09/27 10:59:47;;;;;;;16.70;8.70;;;;;;;16.32;77.97;97448.70;105884;1277;97993;-65
2022/09/27 11:02:26;;;;;;;19.60;9.40;;;;;;;16.34;77.95;97445.09;105948;1277;107814;-64
2022/09/27 11:05:12;;;;;;;17.40;9.40;;;;;;;16.34;77.93;97438.11;105910;1277;96773;-63
2022/09/27 11:08:26;;;;;;;17.50;8.70;;;;;;;16.35;77.90;97437.13;106054;1278;97934;-64
2022/09/27 11:11:12;;;;;;;19.00;9.40;;;;;;;16.35;77.74;97438.50;105998;1277;112250;-65
2022/09/27 11:14:06;;;;;;;20.90;9.90;;;;;;;16.38;78.00;97435.89;105935;1277;95351;-66
2022/09/27 11:16:54;;;;;;;22.20;12.20;;;;;;;16.41;77.77;97428.77;105919;1277;108228;-66
2022/09/27 11:19:34;;;;;;;23.20;11.80;;;;;;;16.44;77.80;97422.83;105970;1277;97956;-65
2022/09/27 11:22:26;;;;;;;23.70;13.10;;;;;;;16.47;77.56;97422.92;106020;1277;97763;-63
2022/09/27 11:24:59;;;;;;;22.60;11.90;;;;;;;16.56;77.78;97421.66;105935;1277;112003;-65
2022/09/27 11:28:06;;;;;;;19.60;10.70;;;;;;;16.62;77.54;97415.34;105976;1277;97728;-64
2022/09/27 11:30:44;;;;;;;19.90;10.80;;;;;;;16.72;77.68;97407.50;105922;1277;108448;-64
2022/09/27 11:33:44;;;;;;;20.50;11.10;;;;;;;16.80;77.38;97406.88;105874;1277;97959;-66
2022/09/27 11:36:16;;;;;;;19.90;10.50;;;;;;;16.89;77.55;97409.59;105750;1277;97886;-65
2022/09/27 11:39:09;;;;;;;20.50;11.40;;;;;;;17.02;77.43;97413.50;106013;1278;111075;-63
2022/09/27 11:42:05;;;;;;;22.40;11.40;;;;;;;17.19;77.35;97412.27;105978;1277;97977;-65
2022/09/27 11:44:59;;;;;;;19.10;10.10;;;;;;;17.28;77.23;97408.87;105956;1276;109333;-65
2022/09/27 11:48:02;;;;;;;18.60;10.20;;;;;;;17.35;77.20;97407.63;105910;1277;97985;-65
2022/09/27 11:50:58;;;;;;;19.50;10.50;;;;;;;17.41;77.28;97407.77;105979;1277;96663;-63
2022/09/27 11:53:30;;;;;;;18.80;10.20;;;;;;;17.42;77.13;97403.09;106013;1277;112010;-67